sensor_id;sensor_type;location;lat;lon;timestamp;P1;durP1;ratioP1;P2;durP2;ratioP2
5878;SDS011;2965;42.640;23.370;2023-05-16T04:03:34;25.17;;;19.87;;
5878;SDS011;2965;42.640;23.370;2023-05-16T04:06:02;29.00;;;19.40;;
5878;SDS011;2965;42.640;23.370;2023-05-16T04:08:29;29.07;;;19.40;;
5878;SDS011;2965;42.640;23.370;2023-05-16T04:10:55;30.17;;;19.67;;
5878;SDS011;2965;42.640;23.370;2023-05-16T04:13:21;25.60;;;19.10;;
5878;SDS011;2965;42.640;23.370;2023-05-16T04:15:46;29.37;;;19.03;;
5878;SDS011;2965;42.640;23.370;2023-05-16T04:18:12;23.80;;;18.63;;
5878;SDS011;2965;42.640;23.370;2023-05-16T04:20:37;23.67;;;18.23;;
5878;SDS011;2965;42.640;23.370;2023-05-16T04:23:03;27.47;;;18.50;;
5878;SDS011;2965;42.640;23.370;2023-05-16T04:25:28;25.83;;;18.77;;
5878;SDS011;2965;42.640;23.370;2023-05-16T04:27:55;31.73;;;18.80;;
5878;SDS011;2965;42.640;23.370;2023-05-16T04:30:21;25.90;;;17.83;;
5878;SDS011;2965;42.640;23.370;2023-05-16T04:32:46;25.93;;;18.60;;
5878;SDS011;2965;42.640;23.370;2023-05-16T04:35:12;26.73;;;17.90;;
5878;SDS011;2965;42.640;23.370;2023-05-16T04:37:37;39.80;;;18.20;;
5878;SDS011;2965;42.640;23.370;2023-05-16T04:40:03;30.33;;;19.00;;
5878;SDS011;2965;42.640;23.370;2023-05-16T04:42:30;33.70;;;17.97;;
5878;SDS011;2965;42.640;23.370;2023-05-16T04:44:56;29.17;;;19.07;;
5878;SDS011;2965;42.640;23.370;2023-05-16T04:47:22;22.87;;;16.37;;
5878;SDS011;2965;42.640;23.370;2023-05-16T04:49:50;29.20;;;18.67;;
5878;SDS011;2965;42.640;23.370;2023-05-16T04:52:15;35.63;;;17.50;;
5878;SDS011;2965;42.640;23.370;2023-05-16T04:54:41;27.60;;;16.47;;
5878;SDS011;2965;42.640;23.370;2023-05-16T04:57:07;24.97;;;16.00;;
5878;SDS011;2965;42.640;23.370;2023-05-16T04:59:32;27.10;;;17.47;;
5878;SDS011;2965;42.640;23.370;2023-05-16T05:01:57;32.37;;;18.27;;
5878;SDS011;2965;42.640;23.370;2023-05-16T05:04:23;22.80;;;16.70;;
5878;SDS011;2965;42.640;23.370;2023-05-16T05:06:49;21.67;;;17.57;;
5878;SDS011;2965;42.640;23.370;2023-05-16T05:09:14;37.73;;;15.73;;
5878;SDS011;2965;42.640;23.370;2023-05-16T05:11:40;36.33;;;16.47;;
5878;SDS011;2965;42.640;23.370;2023-05-16T05:14:05;28.30;;;15.50;;
5878;SDS011;2965;42.640;23.370;2023-05-16T05:16:30;27.40;;;17.20;;
5878;SDS011;2965;42.640;23.370;2023-05-16T05:18:56;37.33;;;16.10;;
5878;SDS011;2965;42.640;23.370;2023-05-16T05:21:22;21.77;;;15.03;;
5878;SDS011;2965;42.640;23.370;2023-05-16T05:23:49;24.73;;;15.37;;
5878;SDS011;2965;42.640;23.370;2023-05-16T05:26:14;22.57;;;15.43;;
5878;SDS011;2965;42.640;23.370;2023-05-16T05:28:40;19.90;;;16.57;;
5878;SDS011;2965;42.640;23.370;2023-05-16T05:31:05;21.27;;;15.97;;
5878;SDS011;2965;42.640;23.370;2023-05-16T05:33:32;24.40;;;14.90;;
5878;SDS011;2965;42.640;23.370;2023-05-16T05:35:57;21.30;;;15.53;;
5878;SDS011;2965;42.640;23.370;2023-05-16T05:38:23;22.93;;;14.87;;
5878;SDS011;2965;42.640;23.370;2023-05-16T05:40:48;22.00;;;15.50;;
5878;SDS011;2965;42.640;23.370;2023-05-16T05:43:14;20.50;;;15.87;;
5878;SDS011;2965;42.640;23.370;2023-05-16T05:45:39;20.57;;;14.63;;
5878;SDS011;2965;42.640;23.370;2023-05-16T05:48:05;34.43;;;15.70;;
5878;SDS011;2965;42.640;23.370;2023-05-16T05:50:31;18.80;;;14.60;;
5878;SDS011;2965;42.640;23.370;2023-05-16T05:52:56;25.90;;;15.03;;
5878;SDS011;2965;42.640;23.370;2023-05-16T05:55:22;21.43;;;13.50;;
5878;SDS011;2965;42.640;23.370;2023-05-16T05:57:47;21.30;;;14.67;;
5878;SDS011;2965;42.640;23.370;2023-05-16T09:31:33;17.70;;;11.23;;
5878;SDS011;2965;42.640;23.370;2023-05-16T09:34:03;15.93;;;11.13;;
5878;SDS011;2965;42.640;23.370;2023-05-16T09:36:31;15.40;;;11.90;;
5878;SDS011;2965;42.640;23.370;2023-05-16T09:38:57;13.07;;;10.33;;
5878;SDS011;2965;42.640;23.370;2023-05-16T09:41:22;17.13;;;11.00;;
5878;SDS011;2965;42.640;23.370;2023-05-16T09:43:48;25.53;;;12.20;;
5878;SDS011;2965;42.640;23.370;2023-05-16T09:51:24;19.60;;;11.27;;
5878;SDS011;2965;42.640;23.370;2023-05-16T09:53:50;12.00;;;10.90;;
5878;SDS011;2965;42.640;23.370;2023-05-16T09:56:16;24.73;;;11.57;;
5878;SDS011;2965;42.640;23.370;2023-05-16T09:58:42;15.37;;;10.90;;
5878;SDS011;2965;42.640;23.370;2023-05-16T10:01:09;17.97;;;11.53;;
5878;SDS011;2965;42.640;23.370;2023-05-16T10:03:36;21.30;;;11.20;;
5878;SDS011;2965;42.640;23.370;2023-05-16T10:06:03;21.70;;;12.27;;
5878;SDS011;2965;42.640;23.370;2023-05-16T10:08:33;13.80;;;12.00;;
5878;SDS011;2965;42.640;23.370;2023-05-16T10:11:01;30.50;;;12.80;;
5878;SDS011;2965;42.640;23.370;2023-05-16T10:13:28;13.87;;;11.70;;
5878;SDS011;2965;42.640;23.370;2023-05-16T10:15:56;12.23;;;10.73;;
5878;SDS011;2965;42.640;23.370;2023-05-16T10:18:28;19.23;;;12.50;;
5878;SDS011;2965;42.640;23.370;2023-05-16T10:20:54;25.37;;;11.70;;
5878;SDS011;2965;42.640;23.370;2023-05-16T10:23:22;17.00;;;11.70;;
5878;SDS011;2965;42.640;23.370;2023-05-16T10:25:50;14.10;;;12.00;;
5878;SDS011;2965;42.640;23.370;2023-05-16T10:28:16;14.40;;;11.23;;
5878;SDS011;2965;42.640;23.370;2023-05-16T10:30:42;20.23;;;12.67;;
5878;SDS011;2965;42.640;23.370;2023-05-16T10:33:12;18.10;;;14.90;;
5878;SDS011;2965;42.640;23.370;2023-05-16T10:35:38;13.03;;;11.23;;
5878;SDS011;2965;42.640;23.370;2023-05-16T10:38:05;22.13;;;11.30;;
5878;SDS011;2965;42.640;23.370;2023-05-16T10:40:32;13.57;;;11.53;;
5878;SDS011;2965;42.640;23.370;2023-05-16T10:43:01;14.73;;;11.30;;
5878;SDS011;2965;42.640;23.370;2023-05-16T10:45:28;12.93;;;11.53;;
5878;SDS011;2965;42.640;23.370;2023-05-16T10:47:58;31.97;;;11.93;;
5878;SDS011;2965;42.640;23.370;2023-05-16T10:53:17;16.37;;;10.90;;
5878;SDS011;2965;42.640;23.370;2023-05-16T10:58:39;18.43;;;12.17;;
5878;SDS011;2965;42.640;23.370;2023-05-16T11:01:22;14.37;;;10.70;;
5878;SDS011;2965;42.640;23.370;2023-05-16T11:06:28;17.37;;;10.43;;
5878;SDS011;2965;42.640;23.370;2023-05-16T11:11:44;18.57;;;9.43;;
5878;SDS011;2965;42.640;23.370;2023-05-16T11:17:15;15.20;;;11.30;;
5878;SDS011;2965;42.640;23.370;2023-05-16T11:19:54;16.27;;;12.07;;
5878;SDS011;2965;42.640;23.370;2023-05-16T11:22:25;13.23;;;10.93;;
5878;SDS011;2965;42.640;23.370;2023-05-16T11:25:04;17.30;;;11.97;;
5878;SDS011;2965;42.640;23.370;2023-05-16T11:27:35;12.60;;;10.70;;
5878;SDS011;2965;42.640;23.370;2023-05-16T11:32:34;33.43;;;10.20;;
5878;SDS011;2965;42.640;23.370;2023-05-16T11:35:00;19.50;;;11.40;;
5878;SDS011;2965;42.640;23.370;2023-05-16T11:37:26;14.67;;;10.87;;
5878;SDS011;2965;42.640;23.370;2023-05-16T11:39:52;14.90;;;10.40;;
5878;SDS011;2965;42.640;23.370;2023-05-16T11:42:18;12.90;;;10.23;;
5878;SDS011;2965;42.640;23.370;2023-05-16T11:44:44;19.77;;;12.10;;
5878;SDS011;2965;42.640;23.370;2023-05-16T11:47:10;16.60;;;10.93;;
5878;SDS011;2965;42.640;23.370;2023-05-16T11:49:36;16.53;;;10.40;;
5878;SDS011;2965;42.640;23.370;2023-05-16T11:52:02;19.30;;;11.43;;
5878;SDS011;2965;42.640;23.370;2023-05-16T11:54:28;16.93;;;11.97;;
5878;SDS011;2965;42.640;23.370;2023-05-16T11:56:54;18.23;;;12.20;;
5878;SDS011;2965;42.640;23.370;2023-05-16T11:59:20;15.23;;;11.47;;
5878;SDS011;2965;42.640;23.370;2023-05-16T12:01:46;21.67;;;12.60;;
5878;SDS011;2965;42.640;23.370;2023-05-16T12:04:15;24.00;;;12.87;;
5878;SDS011;2965;42.640;23.370;2023-05-16T12:06:41;18.33;;;11.00;;
5878;SDS011;2965;42.640;23.370;2023-05-16T12:09:12;13.63;;;11.10;;
5878;SDS011;2965;42.640;23.370;2023-05-16T12:11:39;15.60;;;10.47;;
5878;SDS011;2965;42.640;23.370;2023-05-16T12:14:06;11.23;;;10.10;;
5878;SDS011;2965;42.640;23.370;2023-05-16T12:16:33;25.43;;;11.57;;
5878;SDS011;2965;42.640;23.370;2023-05-16T12:19:03;14.27;;;10.90;;
5878;SDS011;2965;42.640;23.370;2023-05-16T12:21:31;13.30;;;9.40;;
5878;SDS011;2965;42.640;23.370;2023-05-16T12:23:57;19.43;;;11.40;;
5878;SDS011;2965;42.640;23.370;2023-05-16T12:26:30;10.47;;;9.67;;
5878;SDS011;2965;42.640;23.370;2023-05-16T12:28:57;16.73;;;9.80;;
5878;SDS011;2965;42.640;23.370;2023-05-16T12:31:35;11.37;;;10.37;;
5878;SDS011;2965;42.640;23.370;2023-05-16T12:34:01;23.77;;;10.57;;
5878;SDS011;2965;42.640;23.370;2023-05-16T12:36:30;13.17;;;11.10;;
5878;SDS011;2965;42.640;23.370;2023-05-16T12:41:40;17.20;;;10.70;;
5878;SDS011;2965;42.640;23.370;2023-05-16T12:44:14;15.50;;;11.60;;
5878;SDS011;2965;42.640;23.370;2023-05-16T12:46:46;16.63;;;11.13;;
5878;SDS011;2965;42.640;23.370;2023-05-16T12:49:18;13.53;;;11.40;;
5878;SDS011;2965;42.640;23.370;2023-05-16T12:51:47;15.13;;;11.60;;
5878;SDS011;2965;42.640;23.370;2023-05-16T12:54:17;12.73;;;10.20;;
5878;SDS011;2965;42.640;23.370;2023-05-16T12:56:44;16.17;;;10.80;;
5878;SDS011;2965;42.640;23.370;2023-05-16T12:59:09;14.33;;;12.60;;
5878;SDS011;2965;42.640;23.370;2023-05-16T13:01:36;20.50;;;11.57;;
5878;SDS011;2965;42.640;23.370;2023-05-16T13:04:09;17.87;;;10.77;;
5878;SDS011;2965;42.640;23.370;2023-05-16T13:06:40;16.57;;;11.27;;
5878;SDS011;2965;42.640;23.370;2023-05-16T13:09:06;29.07;;;12.33;;
5878;SDS011;2965;42.640;23.370;2023-05-16T13:11:31;19.23;;;10.73;;
5878;SDS011;2965;42.640;23.370;2023-05-16T13:13:57;15.03;;;11.97;;
5878;SDS011;2965;42.640;23.370;2023-05-16T13:16:23;20.33;;;12.27;;
5878;SDS011;2965;42.640;23.370;2023-05-16T13:18:48;18.67;;;12.53;;
5878;SDS011;2965;42.640;23.370;2023-05-16T13:21:13;24.93;;;13.47;;
5878;SDS011;2965;42.640;23.370;2023-05-16T13:23:39;16.30;;;11.97;;
5878;SDS011;2965;42.640;23.370;2023-05-16T13:26:04;20.53;;;11.90;;
5878;SDS011;2965;42.640;23.370;2023-05-16T13:28:29;29.30;;;12.00;;
5878;SDS011;2965;42.640;23.370;2023-05-16T13:30:56;21.03;;;10.90;;
5878;SDS011;2965;42.640;23.370;2023-05-16T13:33:21;16.87;;;10.40;;
5878;SDS011;2965;42.640;23.370;2023-05-16T13:35:48;28.67;;;12.60;;
5878;SDS011;2965;42.640;23.370;2023-05-16T13:38:15;16.53;;;11.23;;
5878;SDS011;2965;42.640;23.370;2023-05-16T13:40:40;31.33;;;13.73;;
5878;SDS011;2965;42.640;23.370;2023-05-16T13:43:08;18.70;;;11.63;;
5878;SDS011;2965;42.640;23.370;2023-05-16T13:45:44;22.80;;;12.73;;
5878;SDS011;2965;42.640;23.370;2023-05-16T13:48:10;20.70;;;12.50;;
5878;SDS011;2965;42.640;23.370;2023-05-16T13:50:37;18.43;;;13.07;;
5878;SDS011;2965;42.640;23.370;2023-05-16T13:53:06;16.10;;;12.87;;
5878;SDS011;2965;42.640;23.370;2023-05-16T13:55:32;38.80;;;13.23;;
5878;SDS011;2965;42.640;23.370;2023-05-16T13:57:58;31.00;;;14.53;;
5878;SDS011;2965;42.640;23.370;2023-05-16T14:00:27;21.80;;;14.00;;
5878;SDS011;2965;42.640;23.370;2023-05-16T14:02:53;15.17;;;13.57;;
5878;SDS011;2965;42.640;23.370;2023-05-16T14:05:20;17.43;;;14.00;;
5878;SDS011;2965;42.640;23.370;2023-05-16T14:07:46;33.93;;;14.13;;
5878;SDS011;2965;42.640;23.370;2023-05-16T14:10:11;21.60;;;13.57;;
5878;SDS011;2965;42.640;23.370;2023-05-16T14:12:55;17.83;;;14.00;;
5878;SDS011;2965;42.640;23.370;2023-05-16T14:15:21;23.13;;;14.20;;
5878;SDS011;2965;42.640;23.370;2023-05-16T14:17:46;24.40;;;14.80;;
5878;SDS011;2965;42.640;23.370;2023-05-16T14:20:13;23.27;;;14.80;;
5878;SDS011;2965;42.640;23.370;2023-05-16T14:22:39;27.30;;;16.00;;
5878;SDS011;2965;42.640;23.370;2023-05-16T14:25:05;40.67;;;15.90;;
5878;SDS011;2965;42.640;23.370;2023-05-16T14:27:31;20.60;;;15.43;;
5878;SDS011;2965;42.640;23.370;2023-05-16T14:29:57;36.57;;;17.63;;
5878;SDS011;2965;42.640;23.370;2023-05-16T14:32:23;27.30;;;17.00;;
5878;SDS011;2965;42.640;23.370;2023-05-16T14:34:50;37.43;;;17.47;;
5878;SDS011;2965;42.640;23.370;2023-05-16T14:37:18;25.90;;;17.87;;
5878;SDS011;2965;42.640;23.370;2023-05-16T14:39:45;28.50;;;17.40;;
5878;SDS011;2965;42.640;23.370;2023-05-16T14:42:13;30.73;;;16.60;;
5878;SDS011;2965;42.640;23.370;2023-05-16T14:44:38;26.60;;;17.33;;
5878;SDS011;2965;42.640;23.370;2023-05-16T14:47:04;22.20;;;15.47;;
5878;SDS011;2965;42.640;23.370;2023-05-16T14:49:30;30.77;;;18.07;;
5878;SDS011;2965;42.640;23.370;2023-05-16T14:51:56;23.50;;;17.07;;
5878;SDS011;2965;42.640;23.370;2023-05-16T14:54:21;37.97;;;17.13;;
5878;SDS011;2965;42.640;23.370;2023-05-16T14:56:47;26.93;;;17.70;;
5878;SDS011;2965;42.640;23.370;2023-05-16T14:59:12;32.80;;;18.80;;
5878;SDS011;2965;42.640;23.370;2023-05-16T15:01:38;27.50;;;18.27;;
5878;SDS011;2965;42.640;23.370;2023-05-16T15:04:03;30.97;;;19.97;;
5878;SDS011;2965;42.640;23.370;2023-05-16T15:06:29;29.90;;;19.80;;
5878;SDS011;2965;42.640;23.370;2023-05-16T15:08:55;38.30;;;19.67;;
5878;SDS011;2965;42.640;23.370;2023-05-16T15:11:20;29.50;;;19.63;;
5878;SDS011;2965;42.640;23.370;2023-05-16T15:13:46;36.50;;;20.20;;
5878;SDS011;2965;42.640;23.370;2023-05-16T15:16:12;40.20;;;19.97;;
5878;SDS011;2965;42.640;23.370;2023-05-16T15:18:38;40.23;;;20.70;;
5878;SDS011;2965;42.640;23.370;2023-05-16T15:21:04;38.43;;;20.40;;
5878;SDS011;2965;42.640;23.370;2023-05-16T15:23:30;38.53;;;22.80;;
5878;SDS011;2965;42.640;23.370;2023-05-16T15:25:56;32.40;;;21.50;;
5878;SDS011;2965;42.640;23.370;2023-05-16T15:28:22;51.70;;;22.47;;
5878;SDS011;2965;42.640;23.370;2023-05-16T15:30:49;31.63;;;21.70;;
5878;SDS011;2965;42.640;23.370;2023-05-16T15:33:15;43.37;;;26.23;;
5878;SDS011;2965;42.640;23.370;2023-05-16T15:35:40;42.10;;;25.77;;
5878;SDS011;2965;42.640;23.370;2023-05-16T15:38:06;42.97;;;25.87;;
5878;SDS011;2965;42.640;23.370;2023-05-16T16:00:47;34.80;;;23.00;;
5878;SDS011;2965;42.640;23.370;2023-05-16T16:03:12;43.27;;;24.40;;
5878;SDS011;2965;42.640;23.370;2023-05-16T16:05:37;41.83;;;22.93;;
5878;SDS011;2965;42.640;23.370;2023-05-16T16:08:03;32.20;;;23.13;;
5878;SDS011;2965;42.640;23.370;2023-05-16T16:10:29;41.03;;;25.00;;
5878;SDS011;2965;42.640;23.370;2023-05-16T16:12:58;39.00;;;23.57;;
5878;SDS011;2965;42.640;23.370;2023-05-16T16:15:24;59.00;;;23.83;;
5878;SDS011;2965;42.640;23.370;2023-05-16T16:17:49;42.33;;;23.77;;
5878;SDS011;2965;42.640;23.370;2023-05-16T16:20:15;36.70;;;22.40;;
5878;SDS011;2965;42.640;23.370;2023-05-16T16:22:40;31.07;;;21.70;;
5878;SDS011;2965;42.640;23.370;2023-05-16T16:25:06;37.07;;;20.73;;
5878;SDS011;2965;42.640;23.370;2023-05-16T16:27:31;34.60;;;20.67;;
5878;SDS011;2965;42.640;23.370;2023-05-16T16:29:57;32.53;;;21.03;;
5878;SDS011;2965;42.640;23.370;2023-05-16T16:32:22;28.27;;;20.00;;
5878;SDS011;2965;42.640;23.370;2023-05-16T16:34:48;45.20;;;19.90;;
5878;SDS011;2965;42.640;23.370;2023-05-16T16:37:13;28.90;;;18.87;;
5878;SDS011;2965;42.640;23.370;2023-05-16T16:39:38;53.20;;;25.20;;
5878;SDS011;2965;42.640;23.370;2023-05-16T16:42:04;28.17;;;19.10;;
5878;SDS011;2965;42.640;23.370;2023-05-16T16:44:31;30.20;;;21.17;;
5878;SDS011;2965;42.640;23.370;2023-05-16T16:46:56;29.60;;;19.13;;
5878;SDS011;2965;42.640;23.370;2023-05-16T16:49:21;30.30;;;19.17;;
5878;SDS011;2965;42.640;23.370;2023-05-16T16:51:47;27.77;;;17.77;;
5878;SDS011;2965;42.640;23.370;2023-05-16T16:54:13;27.70;;;18.90;;
5878;SDS011;2965;42.640;23.370;2023-05-16T16:56:39;33.40;;;20.97;;
5878;SDS011;2965;42.640;23.370;2023-05-16T16:59:04;32.33;;;20.20;;
5878;SDS011;2965;42.640;23.370;2023-05-16T17:01:30;32.13;;;21.87;;
5878;SDS011;2965;42.640;23.370;2023-05-16T17:03:56;39.07;;;21.27;;
5878;SDS011;2965;42.640;23.370;2023-05-16T17:06:22;35.33;;;20.63;;
5878;SDS011;2965;42.640;23.370;2023-05-16T17:08:48;32.63;;;20.03;;
5878;SDS011;2965;42.640;23.370;2023-05-16T17:11:13;36.83;;;22.37;;
5878;SDS011;2965;42.640;23.370;2023-05-16T17:13:46;47.07;;;21.73;;
5878;SDS011;2965;42.640;23.370;2023-05-16T17:16:12;36.30;;;22.20;;
5878;SDS011;2965;42.640;23.370;2023-05-16T17:18:38;35.30;;;21.10;;
5878;SDS011;2965;42.640;23.370;2023-05-16T17:21:04;48.30;;;21.20;;
5878;SDS011;2965;42.640;23.370;2023-05-16T17:23:30;33.90;;;21.97;;
5878;SDS011;2965;42.640;23.370;2023-05-16T17:25:59;39.23;;;22.87;;
5878;SDS011;2965;42.640;23.370;2023-05-16T17:28:25;35.13;;;20.20;;
5878;SDS011;2965;42.640;23.370;2023-05-16T17:30:50;31.03;;;20.07;;
5878;SDS011;2965;42.640;23.370;2023-05-16T17:33:17;31.23;;;20.10;;
5878;SDS011;2965;42.640;23.370;2023-05-16T17:35:43;26.03;;;18.67;;
5878;SDS011;2965;42.640;23.370;2023-05-16T17:38:08;32.63;;;17.90;;
5878;SDS011;2965;42.640;23.370;2023-05-16T17:40:34;32.90;;;21.30;;
5878;SDS011;2965;42.640;23.370;2023-05-16T17:42:59;27.17;;;19.87;;
5878;SDS011;2965;42.640;23.370;2023-05-16T17:45:25;26.57;;;19.80;;
5878;SDS011;2965;42.640;23.370;2023-05-16T17:47:50;33.90;;;18.90;;
5878;SDS011;2965;42.640;23.370;2023-05-16T17:50:16;36.00;;;18.90;;
5878;SDS011;2965;42.640;23.370;2023-05-16T17:52:42;29.40;;;18.77;;
5878;SDS011;2965;42.640;23.370;2023-05-16T17:55:08;35.83;;;19.90;;
5878;SDS011;2965;42.640;23.370;2023-05-16T17:57:34;30.43;;;19.70;;
5878;SDS011;2965;42.640;23.370;2023-05-16T17:59:59;40.40;;;19.60;;
5878;SDS011;2965;42.640;23.370;2023-05-16T18:02:25;24.90;;;18.00;;
5878;SDS011;2965;42.640;23.370;2023-05-16T18:04:51;28.93;;;19.17;;
5878;SDS011;2965;42.640;23.370;2023-05-16T18:07:16;34.90;;;20.13;;
5878;SDS011;2965;42.640;23.370;2023-05-16T18:09:42;33.30;;;20.77;;
5878;SDS011;2965;42.640;23.370;2023-05-16T18:12:08;31.20;;;20.40;;
5878;SDS011;2965;42.640;23.370;2023-05-16T18:14:34;34.70;;;20.30;;
5878;SDS011;2965;42.640;23.370;2023-05-16T18:16:59;30.67;;;20.00;;
5878;SDS011;2965;42.640;23.370;2023-05-16T18:19:24;26.33;;;19.63;;
5878;SDS011;2965;42.640;23.370;2023-05-16T18:21:50;44.83;;;22.87;;
5878;SDS011;2965;42.640;23.370;2023-05-16T18:24:15;32.30;;;21.53;;
5878;SDS011;2965;42.640;23.370;2023-05-16T18:26:41;30.90;;;22.13;;
5878;SDS011;2965;42.640;23.370;2023-05-16T18:29:08;43.97;;;22.43;;
5878;SDS011;2965;42.640;23.370;2023-05-16T18:31:34;36.10;;;22.70;;
5878;SDS011;2965;42.640;23.370;2023-05-16T18:34:02;47.87;;;22.43;;
5878;SDS011;2965;42.640;23.370;2023-05-16T18:36:28;33.80;;;23.13;;
5878;SDS011;2965;42.640;23.370;2023-05-16T18:38:53;44.33;;;23.60;;
5878;SDS011;2965;42.640;23.370;2023-05-16T18:41:20;35.30;;;23.97;;
5878;SDS011;2965;42.640;23.370;2023-05-16T18:43:46;37.03;;;22.90;;
5878;SDS011;2965;42.640;23.370;2023-05-16T18:46:11;37.13;;;24.87;;
5878;SDS011;2965;42.640;23.370;2023-05-16T18:48:36;42.13;;;25.50;;
5878;SDS011;2965;42.640;23.370;2023-05-16T18:51:02;35.27;;;22.87;;
5878;SDS011;2965;42.640;23.370;2023-05-16T18:53:27;38.73;;;23.90;;
5878;SDS011;2965;42.640;23.370;2023-05-16T18:55:53;37.90;;;23.53;;
5878;SDS011;2965;42.640;23.370;2023-05-16T18:58:18;44.33;;;23.40;;
5878;SDS011;2965;42.640;23.370;2023-05-16T19:00:44;33.03;;;23.27;;
5878;SDS011;2965;42.640;23.370;2023-05-16T19:03:10;38.63;;;26.17;;
5878;SDS011;2965;42.640;23.370;2023-05-16T19:05:37;38.03;;;24.50;;
5878;SDS011;2965;42.640;23.370;2023-05-16T19:08:02;39.63;;;25.40;;
5878;SDS011;2965;42.640;23.370;2023-05-16T19:10:28;47.73;;;28.80;;
5878;SDS011;2965;42.640;23.370;2023-05-16T19:12:53;45.50;;;26.73;;
5878;SDS011;2965;42.640;23.370;2023-05-16T19:15:19;40.87;;;25.27;;
5878;SDS011;2965;42.640;23.370;2023-05-16T19:17:44;37.80;;;23.70;;
5878;SDS011;2965;42.640;23.370;2023-05-16T19:20:10;42.93;;;26.33;;
5878;SDS011;2965;42.640;23.370;2023-05-16T19:22:35;45.40;;;25.30;;
5878;SDS011;2965;42.640;23.370;2023-05-16T19:25:01;39.00;;;23.13;;
5878;SDS011;2965;42.640;23.370;2023-05-16T19:27:27;40.27;;;24.53;;
5878;SDS011;2965;42.640;23.370;2023-05-16T19:29:53;53.40;;;23.80;;
5878;SDS011;2965;42.640;23.370;2023-05-16T19:32:18;42.23;;;25.80;;
5878;SDS011;2965;42.640;23.370;2023-05-16T19:34:44;34.90;;;24.40;;
5878;SDS011;2965;42.640;23.370;2023-05-16T19:37:10;38.53;;;23.60;;
5878;SDS011;2965;42.640;23.370;2023-05-16T19:39:35;40.80;;;24.83;;
5878;SDS011;2965;42.640;23.370;2023-05-16T19:42:00;38.17;;;24.40;;
5878;SDS011;2965;42.640;23.370;2023-05-16T19:44:26;36.63;;;23.13;;
5878;SDS011;2965;42.640;23.370;2023-05-16T19:46:51;29.13;;;21.00;;
5878;SDS011;2965;42.640;23.370;2023-05-16T19:49:18;28.63;;;20.43;;
5878;SDS011;2965;42.640;23.370;2023-05-16T19:51:43;34.67;;;21.70;;
5878;SDS011;2965;42.640;23.370;2023-05-16T19:54:08;30.23;;;19.77;;
5878;SDS011;2965;42.640;23.370;2023-05-16T19:56:34;31.53;;;19.00;;
5878;SDS011;2965;42.640;23.370;2023-05-16T19:58:59;24.33;;;18.30;;
5878;SDS011;2965;42.640;23.370;2023-05-16T20:01:25;31.03;;;19.60;;
5878;SDS011;2965;42.640;23.370;2023-05-16T20:03:50;29.70;;;17.07;;
5878;SDS011;2965;42.640;23.370;2023-05-16T20:06:15;29.17;;;17.27;;
5878;SDS011;2965;42.640;23.370;2023-05-16T20:08:41;32.60;;;19.70;;
5878;SDS011;2965;42.640;23.370;2023-05-16T20:11:06;24.50;;;18.20;;
5878;SDS011;2965;42.640;23.370;2023-05-16T20:13:31;31.93;;;19.10;;
5878;SDS011;2965;42.640;23.370;2023-05-16T20:15:57;25.70;;;18.77;;
5878;SDS011;2965;42.640;23.370;2023-05-16T20:18:22;30.40;;;18.87;;
5878;SDS011;2965;42.640;23.370;2023-05-16T20:20:48;27.30;;;18.33;;
5878;SDS011;2965;42.640;23.370;2023-05-16T20:23:13;36.60;;;18.60;;
5878;SDS011;2965;42.640;23.370;2023-05-16T20:25:38;27.73;;;18.30;;
5878;SDS011;2965;42.640;23.370;2023-05-16T20:28:04;33.03;;;18.60;;
5878;SDS011;2965;42.640;23.370;2023-05-16T20:30:29;28.10;;;18.90;;
5878;SDS011;2965;42.640;23.370;2023-05-16T20:32:57;26.70;;;17.90;;
5878;SDS011;2965;42.640;23.370;2023-05-16T20:35:23;27.23;;;16.67;;
5878;SDS011;2965;42.640;23.370;2023-05-16T20:37:48;32.70;;;18.03;;
5878;SDS011;2965;42.640;23.370;2023-05-16T20:40:14;23.40;;;18.30;;
5878;SDS011;2965;42.640;23.370;2023-05-16T20:42:39;28.70;;;17.63;;
5878;SDS011;2965;42.640;23.370;2023-05-16T20:45:07;29.23;;;16.70;;
5878;SDS011;2965;42.640;23.370;2023-05-16T20:47:33;21.63;;;16.57;;
5878;SDS011;2965;42.640;23.370;2023-05-16T20:49:58;25.50;;;15.67;;
5878;SDS011;2965;42.640;23.370;2023-05-16T20:52:24;22.23;;;14.53;;
5878;SDS011;2965;42.640;23.370;2023-05-16T20:54:51;18.03;;;15.27;;
5878;SDS011;2965;42.640;23.370;2023-05-16T20:57:17;20.67;;;12.63;;
5878;SDS011;2965;42.640;23.370;2023-05-16T20:59:42;16.27;;;11.67;;
